Coastal Venture — WDF3647 — position and weather

sailwx.info

Track history (hours):
 
Tides and Currents Weather Stations Pressure Air Temp Water Temp Dewpoint Dewpoint Depression Visibility Wind Speed Wind Dir Waves Ship Positions

Coastal Venture

Owner: Stevens Transportation, LLC, Yonges Island, SC. More information available from US FCC via Universal Licensing System and Coast Guard Vessel Documentation Center.

Last reported at 2017-Oct-04 11:09 UTC. Time now 2017-Oct-18 18:41 UTC.
Position N 32°48' W 123°49'.
Warning: this ship's position is 14 days out of date.

Length 75 m; draft 3.2 m.

Type: Cargo ship. MMSI: 302232424.

Date/timePositionNaut miles runAvg speedWind from/ knotsBaromVisibWave heightAir tempDewpointWater temp
2017-Oct-04 11:09N 32°48' W 123°49'411.1
2017-Oct-04 10:50N 32°49' W 123°45'5111.0
2017-Oct-04 06:10N 33°07' W 122°48'310.6
2017-Oct-04 05:54N 33°08' W 122°45'510.6
2017-Oct-04 05:28N 33°10' W 122°40'5310.4
2017-Oct-04 00:22N 33°39' W 121°47'4 9.9
2017-Oct-03 23:59N 33°42' W 121°43'510.1
2017-Oct-03 23:30N 33°45' W 121°39'510.2
2017-Oct-03 23:00N 33°48' W 121°34'5 9.9
2017-Oct-03 22:30N 33°51' W 121°29'510.1
2017-Oct-03 22:00N 33°54' W 121°25'5 9.6
2017-Oct-03 21:30N 33°57' W 121°20'5 9.6
2017-Oct-03 21:00N 34°01' W 121°16'5 9.5
2017-Oct-03 20:30N 34°04' W 121°12'5 9.2
2017-Oct-03 20:00N 34°08' W 121°09'4 7.8
2017-Oct-03 19:30N 34°11' W 121°07'11 8.0
2017-Oct-03 18:08N 34°22' W 121°02'1 8.0
2017-Oct-03 18:00N 34°22' W 121°02'4 7.9
2017-Oct-03 17:30N 34°26' W 121°02'4 7.5
2017-Oct-03 17:00N 34°30' W 121°01'4 7.6
2017-Oct-03 16:30N 34°34' W 121°02'4 8.2
2017-Oct-03 16:00N 34°38' W 121°04'4 8.5
2017-Oct-03 15:30N 34°41' W 121°07'4 8.3
2017-Oct-03 15:00N 34°45' W 121°09'8 8.2
2017-Oct-03 14:00N 34°52' W 121°15'4 7.7
2017-Oct-03 13:30N 34°55' W 121°17'4 7.8
2017-Oct-03 13:00N 34°59' W 121°19'4 8.2
2017-Oct-03 12:30N 35°02' W 121°22'4 8.1
2017-Oct-03 12:00N 35°06' W 121°24'4 8.4
2017-Oct-03 11:30N 35°09' W 121°27'4 8.2
2017-Oct-03 11:01N 35°13' W 121°29'4 8.2
2017-Oct-03 10:30N 35°16' W 121°32'4 8.0
2017-Oct-03 10:00N 35°19' W 121°36'4 7.9
2017-Oct-03 09:30N 35°23' W 121°38'4 7.9
2017-Oct-03 08:57N 35°27' W 121°40'63 9.7
2017-Oct-03 02:32N 36°20' W 122°19'011.4
2017-Oct-03 02:30N 36°21' W 122°19'711.2
2017-Oct-03 01:53N 36°26' W 122°25'611.4
2017-Oct-03 01:23N 36°31' W 122°29'511.8
2017-Oct-03 00:58N 36°35' W 122°32'611.9
2017-Oct-03 00:29N 36°40' W 122°36'612.0
2017-Oct-03 00:00N 36°44' W 122°40'611.2
2017-Oct-02 23:29N 36°50' W 122°43'611.8
2017-Oct-02 23:00N 36°55' W 122°43'611.8
2017-Oct-02 22:30N 37°01' W 122°43'611.6
2017-Oct-02 22:00N 37°07' W 122°43'611.8
2017-Oct-02 21:31N 37°13' W 122°44'612.4
2017-Oct-02 21:00N 37°19' W 122°44'612.4
2017-Oct-02 20:30N 37°25' W 122°44'612.2
2017-Oct-02 20:00N 37°31' W 122°44'612.0
2017-Oct-02 19:30N 37°37' W 122°44'611.1
2017-Oct-02 19:00N 37°43' W 122°43'5 9.3
2017-Oct-02 18:30N 37°46' W 122°39'510.4
2017-Oct-02 18:00N 37°48' W 122°32'510.6
2017-Oct-02 17:31N 37°50' W 122°26'4 8.7
2017-Oct-02 17:00N 37°55' W 122°27'5 9.7
2017-Oct-02 16:30N 37°59' W 122°25'510.3
2017-Oct-02 15:59N 38°03' W 122°20'611.3
2017-Oct-02 15:30N 38°04' W 122°13'10 0.7
2017-Oct-02 01:57N 38°04' W 122°01'0 0.0
2017-Oct-02 00:41N 38°04' W 122°01'0 0.0
2017-Oct-02 00:23N 38°04' W 122°01'0 0.0
2017-Oct-01 23:40N 38°04' W 122°01'0 0.0
2017-Oct-01 23:29N 38°04' W 122°01'0 0.0
2017-Oct-01 22:57N 38°04' W 122°01'0 0.0
2017-Sep-30 01:29N 38°04' W 122°01'0 0.0
2017-Sep-29 18:21N 38°04' W 122°01'0 0.0
2017-Sep-29 17:01N 38°04' W 122°01'0 0.0
2017-Sep-29 16:34N 38°04' W 122°01'0 0.0
2017-Sep-29 16:30N 38°04' W 122°01'2 1.4
2017-Sep-29 15:23N 38°04' W 122°03'512.9
2017-Sep-29 15:00N 38°02' W 122°08'611.8
2017-Sep-29 14:30N 38°04' W 122°16'611.8
2017-Sep-29 14:00N 38°02' W 122°23'611.7
2017-Sep-29 13:30N 37°57' W 122°26'612.5
2017-Sep-29 13:00N 37°50' W 122°25'5 9.4
2017-Sep-29 12:31N 37°48' W 122°30'611.3
2017-Sep-29 12:00N 37°46' W 122°37'4 8.1
2017-Sep-29 11:30N 37°44' W 122°41'3 5.5
2017-Sep-29 11:00N 37°41' W 122°40'3 6.0
2017-Sep-29 10:30N 37°38' W 122°39'4 7.3
2017-Sep-29 10:00N 37°35' W 122°39'4 7.5
2017-Sep-29 09:30N 37°31' W 122°39'4 7.9
2017-Sep-29 09:00N 37°27' W 122°39'4 8.1
2017-Sep-29 08:30N 37°23' W 122°39'4 8.0
2017-Sep-29 08:00N 37°19' W 122°39'4 7.9
2017-Sep-29 07:30N 37°15' W 122°39'4 8.7
2017-Sep-29 07:00N 37°11' W 122°39'5 9.2
2017-Sep-29 06:30N 37°06' W 122°39'5 9.3
2017-Sep-29 06:00N 37°01' W 122°40'4 9.1
2017-Sep-29 05:30N 36°57' W 122°40'5 9.1
2017-Sep-29 05:00N 36°52' W 122°39'5 9.0
2017-Sep-29 04:30N 36°48' W 122°39'5 9.1
2017-Sep-29 04:00N 36°43' W 122°39'4 8.8
2017-Sep-29 03:30N 36°39' W 122°38'5 9.0
2017-Sep-29 03:00N 36°35' W 122°35'5 9.6
2017-Sep-29 02:30N 36°31' W 122°32'611.4
2017-Sep-29 02:00N 36°26' W 122°28'611.4
2017-Sep-29 01:30N 36°21' W 122°25'611.1
2017-Sep-29 01:00N 36°17' W 122°21'610.7
2017-Sep-29 00:29N 36°12' W 122°17'510.5
2017-Sep-29 00:00N 36°08' W 122°14'510.6
2017-Sep-28 23:30N 36°03' W 122°11'510.7
2017-Sep-28 23:00N 35°58' W 122°08'6 9.4
2017-Sep-28 22:20N 35°53' W 122°03'410.6
2017-Sep-28 21:59N 35°50' W 122°01'1211.1
2017-Sep-28 20:52N 35°38' W 121°59'411.2
2017-Sep-28 20:30N 35°34' W 121°58'510.0
2017-Sep-28 20:00N 35°30' W 121°54'611.1
2017-Sep-28 19:30N 35°28' W 121°48'610.8
2017-Sep-28 19:00N 35°25' W 121°42'510.7
2017-Sep-28 18:30N 35°21' W 121°38'510.8
2017-Sep-28 18:00N 35°16' W 121°35'611.0
2017-Sep-28 17:30N 35°12' W 121°32'510.9
2017-Sep-28 17:00N 35°07' W 121°28'511.0
2017-Sep-28 16:30N 35°02' W 121°26'611.1
2017-Sep-28 16:00N 34°57' W 121°23'510.7
2017-Sep-28 15:30N 34°52' W 121°21'510.1
2017-Sep-28 15:00N 34°48' W 121°17'510.7
2017-Sep-28 14:30N 34°43' W 121°13'510.7
2017-Sep-28 14:00N 34°39' W 121°09'610.8
2017-Sep-28 13:30N 34°34' W 121°07'510.9
2017-Sep-28 13:00N 34°30' W 121°03'511.0
2017-Sep-28 12:30N 34°25' W 120°59'611.1
2017-Sep-28 12:00N 34°20' W 120°55'611.0
2017-Sep-28 11:30N 34°16' W 120°51'510.8
2017-Sep-28 11:00N 34°12' W 120°47'510.7
2017-Sep-28 10:30N 34°08' W 120°43'510.8
2017-Sep-28 10:00N 34°03' W 120°41'510.7
2017-Sep-28 09:30N 33°58' W 120°39'510.8
2017-Sep-28 09:00N 33°54' W 120°35'610.9
2017-Sep-28 08:30N 33°49' W 120°31'511.1
2017-Sep-28 08:00N 33°45' W 120°27'611.0
2017-Sep-28 07:30N 33°40' W 120°23'611.3
2017-Sep-28 07:00N 33°36' W 120°19'611.4
2017-Sep-28 06:30N 33°31' W 120°15'611.5
2017-Sep-28 06:00N 33°26' W 120°12'611.4
2017-Sep-28 05:30N 33°21' W 120°08'611.2
2017-Sep-28 04:58N 33°16' W 120°05'510.9
2017-Sep-28 04:30N 33°12' W 120°01'611.3
2017-Sep-28 04:00N 33°09' W 119°55'611.3
2017-Sep-28 03:30N 33°06' W 119°49'510.6
2017-Sep-28 03:00N 33°03' W 119°44'510.4
2017-Sep-28 02:30N 33°01' W 119°39'5 9.3
2017-Sep-28 02:00N 32°58' W 119°34'1510.9
2017-Sep-28 00:39N 32°51' W 119°19'210.8
2017-Sep-28 00:30N 32°50' W 119°17'510.9
2017-Sep-28 00:00N 32°48' W 119°11'510.9
2017-Sep-27 23:30N 32°47' W 119°05'610.9
2017-Sep-27 22:59N 32°46' W 118°58'511.1
2017-Sep-27 22:30N 32°44' W 118°52'611.2
2017-Sep-27 22:00N 32°45' W 118°45'611.3
2017-Sep-27 21:30N 32°45' W 118°39'611.5
2017-Sep-27 21:00N 32°43' W 118°32'4 8.5
2017-Sep-27 20:30N 32°41' W 118°27'4 7.6
2017-Sep-27 20:00N 32°40' W 118°23'510.9
2017-Sep-27 19:30N 32°43' W 118°18'612.0
2017-Sep-27 19:00N 32°42' W 118°11'611.9
2017-Sep-27 18:30N 32°42' W 118°04'611.9
2017-Sep-27 18:00N 32°42' W 117°57'611.9
2017-Sep-27 17:30N 32°42' W 117°50'611.9
2017-Sep-27 17:00N 32°41' W 117°43'612.2
2017-Sep-27 16:30N 32°41' W 117°36'612.0
2017-Sep-27 16:00N 32°39' W 117°29'611.7
2017-Sep-27 15:30N 32°37' W 117°22'611.2
2017-Sep-27 15:00N 32°37' W 117°15'510.3
2017-Sep-27 14:30N 32°42' W 117°14'4 5.2
2017-Sep-27 13:47N 32°42' W 117°09'0 0.0
2017-Sep-27 13:29N 32°42' W 117°09'0 0.0
2017-Sep-27 02:29N 32°42' W 117°09'0 0.0
2017-Sep-26 13:35N 32°42' W 117°09'0 0.0
2017-Sep-26 13:26N 32°42' W 117°09'0 0.0
2017-Sep-26 11:23N 32°42' W 117°09'0 0.0
2017-Sep-26 10:59N 32°42' W 117°09'0 0.0
2017-Sep-26 10:11N 32°42' W 117°09'0 0.0
2017-Sep-25 15:01N 32°42' W 117°09'0 0.0
2017-Sep-25 01:37N 32°42' W 117°09'0 0.0
2017-Sep-25 01:10N 32°42' W 117°09'0 0.0
2017-Sep-25 00:58N 32°42' W 117°09'0 0.0
2017-Sep-25 00:22N 32°42' W 117°09'0 0.0
2017-Sep-24 23:46N 32°42' W 117°09'  
Track history (hours):
 
Tides and Currents Weather Stations Pressure Air Temp Water Temp Dewpoint Dewpoint Depression Visibility Wind Speed Wind Dir Waves Ship Positions

Coastal Venture

Owner: Stevens Transportation, LLC, Yonges Island, SC. More information available from US FCC via Universal Licensing System and Coast Guard Vessel Documentation Center.

Last reported at 2017-Oct-04 11:09 UTC. Time now 2017-Oct-18 18:41 UTC.
Position N 32°48' W 123°49'.
Warning: this ship's position is 14 days out of date.

Length 75 m; draft 3.2 m.

Type: Cargo ship. MMSI: 302232424.

Date/timePositionNaut miles runAvg speedWind from/ knotsBaromVisibWave heightAir tempDewpointWater temp
2017-Oct-04 11:09N 32°48' W 123°49'411.1
2017-Oct-04 10:50N 32°49' W 123°45'5111.0
2017-Oct-04 06:10N 33°07' W 122°48'310.6
2017-Oct-04 05:54N 33°08' W 122°45'510.6
2017-Oct-04 05:28N 33°10' W 122°40'5310.4
2017-Oct-04 00:22N 33°39' W 121°47'4 9.9
2017-Oct-03 23:59N 33°42' W 121°43'510.1
2017-Oct-03 23:30N 33°45' W 121°39'510.2
2017-Oct-03 23:00N 33°48' W 121°34'5 9.9
2017-Oct-03 22:30N 33°51' W 121°29'510.1
2017-Oct-03 22:00N 33°54' W 121°25'5 9.6
2017-Oct-03 21:30N 33°57' W 121°20'5 9.6
2017-Oct-03 21:00N 34°01' W 121°16'5 9.5
2017-Oct-03 20:30N 34°04' W 121°12'5 9.2
2017-Oct-03 20:00N 34°08' W 121°09'4 7.8
2017-Oct-03 19:30N 34°11' W 121°07'11 8.0
2017-Oct-03 18:08N 34°22' W 121°02'1 8.0
2017-Oct-03 18:00N 34°22' W 121°02'4 7.9
2017-Oct-03 17:30N 34°26' W 121°02'4 7.5
2017-Oct-03 17:00N 34°30' W 121°01'4 7.6
2017-Oct-03 16:30N 34°34' W 121°02'4 8.2
2017-Oct-03 16:00N 34°38' W 121°04'4 8.5
2017-Oct-03 15:30N 34°41' W 121°07'4 8.3
2017-Oct-03 15:00N 34°45' W 121°09'8 8.2
2017-Oct-03 14:00N 34°52' W 121°15'4 7.7
2017-Oct-03 13:30N 34°55' W 121°17'4 7.8
2017-Oct-03 13:00N 34°59' W 121°19'4 8.2
2017-Oct-03 12:30N 35°02' W 121°22'4 8.1
2017-Oct-03 12:00N 35°06' W 121°24'4 8.4
2017-Oct-03 11:30N 35°09' W 121°27'4 8.2
2017-Oct-03 11:01N 35°13' W 121°29'4 8.2
2017-Oct-03 10:30N 35°16' W 121°32'4 8.0
2017-Oct-03 10:00N 35°19' W 121°36'4 7.9
2017-Oct-03 09:30N 35°23' W 121°38'4 7.9
2017-Oct-03 08:57N 35°27' W 121°40'63 9.7
2017-Oct-03 02:32N 36°20' W 122°19'011.4
2017-Oct-03 02:30N 36°21' W 122°19'711.2
2017-Oct-03 01:53N 36°26' W 122°25'611.4
2017-Oct-03 01:23N 36°31' W 122°29'511.8
2017-Oct-03 00:58N 36°35' W 122°32'611.9
2017-Oct-03 00:29N 36°40' W 122°36'612.0
2017-Oct-03 00:00N 36°44' W 122°40'611.2
2017-Oct-02 23:29N 36°50' W 122°43'611.8
2017-Oct-02 23:00N 36°55' W 122°43'611.8
2017-Oct-02 22:30N 37°01' W 122°43'611.6
2017-Oct-02 22:00N 37°07' W 122°43'611.8
2017-Oct-02 21:31N 37°13' W 122°44'612.4
2017-Oct-02 21:00N 37°19' W 122°44'612.4
2017-Oct-02 20:30N 37°25' W 122°44'612.2
2017-Oct-02 20:00N 37°31' W 122°44'612.0
2017-Oct-02 19:30N 37°37' W 122°44'611.1
2017-Oct-02 19:00N 37°43' W 122°43'5 9.3
2017-Oct-02 18:30N 37°46' W 122°39'510.4
2017-Oct-02 18:00N 37°48' W 122°32'510.6
2017-Oct-02 17:31N 37°50' W 122°26'4 8.7
2017-Oct-02 17:00N 37°55' W 122°27'5 9.7
2017-Oct-02 16:30N 37°59' W 122°25'510.3
2017-Oct-02 15:59N 38°03' W 122°20'611.3
2017-Oct-02 15:30N 38°04' W 122°13'10 0.7
2017-Oct-02 01:57N 38°04' W 122°01'0 0.0
2017-Oct-02 00:41N 38°04' W 122°01'0 0.0
2017-Oct-02 00:23N 38°04' W 122°01'0 0.0
2017-Oct-01 23:40N 38°04' W 122°01'0 0.0
2017-Oct-01 23:29N 38°04' W 122°01'0 0.0
2017-Oct-01 22:57N 38°04' W 122°01'0 0.0
2017-Sep-30 01:29N 38°04' W 122°01'0 0.0
2017-Sep-29 18:21N 38°04' W 122°01'0 0.0
2017-Sep-29 17:01N 38°04' W 122°01'0 0.0
2017-Sep-29 16:34N 38°04' W 122°01'0 0.0
2017-Sep-29 16:30N 38°04' W 122°01'2 1.4
2017-Sep-29 15:23N 38°04' W 122°03'512.9
2017-Sep-29 15:00N 38°02' W 122°08'611.8
2017-Sep-29 14:30N 38°04' W 122°16'611.8
2017-Sep-29 14:00N 38°02' W 122°23'611.7
2017-Sep-29 13:30N 37°57' W 122°26'612.5
2017-Sep-29 13:00N 37°50' W 122°25'5 9.4
2017-Sep-29 12:31N 37°48' W 122°30'611.3
2017-Sep-29 12:00N 37°46' W 122°37'4 8.1
2017-Sep-29 11:30N 37°44' W 122°41'3 5.5
2017-Sep-29 11:00N 37°41' W 122°40'3 6.0
2017-Sep-29 10:30N 37°38' W 122°39'4 7.3
2017-Sep-29 10:00N 37°35' W 122°39'4 7.5
2017-Sep-29 09:30N 37°31' W 122°39'4 7.9
2017-Sep-29 09:00N 37°27' W 122°39'4 8.1
2017-Sep-29 08:30N 37°23' W 122°39'4 8.0
2017-Sep-29 08:00N 37°19' W 122°39'4 7.9
2017-Sep-29 07:30N 37°15' W 122°39'4 8.7
2017-Sep-29 07:00N 37°11' W 122°39'5 9.2
2017-Sep-29 06:30N 37°06' W 122°39'5 9.3
2017-Sep-29 06:00N 37°01' W 122°40'4 9.1
2017-Sep-29 05:30N 36°57' W 122°40'5 9.1
2017-Sep-29 05:00N 36°52' W 122°39'5 9.0
2017-Sep-29 04:30N 36°48' W 122°39'5 9.1
2017-Sep-29 04:00N 36°43' W 122°39'4 8.8
2017-Sep-29 03:30N 36°39' W 122°38'5 9.0
2017-Sep-29 03:00N 36°35' W 122°35'5 9.6
2017-Sep-29 02:30N 36°31' W 122°32'611.4
2017-Sep-29 02:00N 36°26' W 122°28'611.4
2017-Sep-29 01:30N 36°21' W 122°25'611.1
2017-Sep-29 01:00N 36°17' W 122°21'610.7
2017-Sep-29 00:29N 36°12' W 122°17'510.5
2017-Sep-29 00:00N 36°08' W 122°14'510.6
2017-Sep-28 23:30N 36°03' W 122°11'510.7
2017-Sep-28 23:00N 35°58' W 122°08'6 9.4
2017-Sep-28 22:20N 35°53' W 122°03'410.6
2017-Sep-28 21:59N 35°50' W 122°01'1211.1
2017-Sep-28 20:52N 35°38' W 121°59'411.2
2017-Sep-28 20:30N 35°34' W 121°58'510.0
2017-Sep-28 20:00N 35°30' W 121°54'611.1
2017-Sep-28 19:30N 35°28' W 121°48'610.8
2017-Sep-28 19:00N 35°25' W 121°42'510.7
2017-Sep-28 18:30N 35°21' W 121°38'510.8
2017-Sep-28 18:00N 35°16' W 121°35'611.0
2017-Sep-28 17:30N 35°12' W 121°32'510.9
2017-Sep-28 17:00N 35°07' W 121°28'511.0
2017-Sep-28 16:30N 35°02' W 121°26'611.1
2017-Sep-28 16:00N 34°57' W 121°23'510.7
2017-Sep-28 15:30N 34°52' W 121°21'510.1
2017-Sep-28 15:00N 34°48' W 121°17'510.7
2017-Sep-28 14:30N 34°43' W 121°13'510.7
2017-Sep-28 14:00N 34°39' W 121°09'610.8
2017-Sep-28 13:30N 34°34' W 121°07'510.9
2017-Sep-28 13:00N 34°30' W 121°03'511.0
2017-Sep-28 12:30N 34°25' W 120°59'611.1
2017-Sep-28 12:00N 34°20' W 120°55'611.0
2017-Sep-28 11:30N 34°16' W 120°51'510.8
2017-Sep-28 11:00N 34°12' W 120°47'510.7
2017-Sep-28 10:30N 34°08' W 120°43'510.8
2017-Sep-28 10:00N 34°03' W 120°41'510.7
2017-Sep-28 09:30N 33°58' W 120°39'510.8
2017-Sep-28 09:00N 33°54' W 120°35'610.9
2017-Sep-28 08:30N 33°49' W 120°31'511.1
2017-Sep-28 08:00N 33°45' W 120°27'611.0
2017-Sep-28 07:30N 33°40' W 120°23'611.3
2017-Sep-28 07:00N 33°36' W 120°19'611.4
2017-Sep-28 06:30N 33°31' W 120°15'611.5
2017-Sep-28 06:00N 33°26' W 120°12'611.4
2017-Sep-28 05:30N 33°21' W 120°08'611.2
2017-Sep-28 04:58N 33°16' W 120°05'510.9
2017-Sep-28 04:30N 33°12' W 120°01'611.3
2017-Sep-28 04:00N 33°09' W 119°55'611.3
2017-Sep-28 03:30N 33°06' W 119°49'510.6
2017-Sep-28 03:00N 33°03' W 119°44'510.4
2017-Sep-28 02:30N 33°01' W 119°39'5 9.3
2017-Sep-28 02:00N 32°58' W 119°34'1510.9
2017-Sep-28 00:39N 32°51' W 119°19'210.8
2017-Sep-28 00:30N 32°50' W 119°17'510.9
2017-Sep-28 00:00N 32°48' W 119°11'510.9
2017-Sep-27 23:30N 32°47' W 119°05'610.9
2017-Sep-27 22:59N 32°46' W 118°58'511.1
2017-Sep-27 22:30N 32°44' W 118°52'611.2
2017-Sep-27 22:00N 32°45' W 118°45'611.3
2017-Sep-27 21:30N 32°45' W 118°39'611.5
2017-Sep-27 21:00N 32°43' W 118°32'4 8.5
2017-Sep-27 20:30N 32°41' W 118°27'4 7.6
2017-Sep-27 20:00N 32°40' W 118°23'510.9
2017-Sep-27 19:30N 32°43' W 118°18'612.0
2017-Sep-27 19:00N 32°42' W 118°11'611.9
2017-Sep-27 18:30N 32°42' W 118°04'611.9
2017-Sep-27 18:00N 32°42' W 117°57'611.9
2017-Sep-27 17:30N 32°42' W 117°50'611.9
2017-Sep-27 17:00N 32°41' W 117°43'612.2
2017-Sep-27 16:30N 32°41' W 117°36'612.0
2017-Sep-27 16:00N 32°39' W 117°29'611.7
2017-Sep-27 15:30N 32°37' W 117°22'611.2
2017-Sep-27 15:00N 32°37' W 117°15'510.3
2017-Sep-27 14:30N 32°42' W 117°14'4 5.2
2017-Sep-27 13:47N 32°42' W 117°09'0 0.0
2017-Sep-27 13:29N 32°42' W 117°09'0 0.0
2017-Sep-27 02:29N 32°42' W 117°09'0 0.0
2017-Sep-26 13:35N 32°42' W 117°09'0 0.0
2017-Sep-26 13:26N 32°42' W 117°09'0 0.0
2017-Sep-26 11:23N 32°42' W 117°09'0 0.0
2017-Sep-26 10:59N 32°42' W 117°09'0 0.0
2017-Sep-26 10:11N 32°42' W 117°09'0 0.0
2017-Sep-25 15:01N 32°42' W 117°09'0 0.0
2017-Sep-25 01:37N 32°42' W 117°09'0 0.0
2017-Sep-25 01:10N 32°42' W 117°09'0 0.0
2017-Sep-25 00:58N 32°42' W 117°09'0 0.0
2017-Sep-25 00:22N 32°42' W 117°09'0 0.0
2017-Sep-24 23:46N 32°42' W 117°09'  

Dump ship's entire track history